sensor_id;sensor_type;location;lat;lon;timestamp;P1;durP1;ratioP1;P2;durP2;ratioP2
60006;SDS011;45863;50.336;3.536;2023-07-13T00:01:44;10.88;;;3.35;;
60006;SDS011;45863;50.336;3.536;2023-07-13T00:04:11;15.73;;;3.38;;
60006;SDS011;45863;50.336;3.536;2023-07-13T00:06:37;15.48;;;3.30;;
60006;SDS011;45863;50.336;3.536;2023-07-13T00:09:02;11.60;;;3.07;;
60006;SDS011;45863;50.336;3.536;2023-07-13T00:11:27;14.20;;;3.45;;
60006;SDS011;45863;50.336;3.536;2023-07-13T00:13:53;11.68;;;3.17;;
60006;SDS011;45863;50.336;3.536;2023-07-13T00:16:18;14.98;;;3.67;;
60006;SDS011;45863;50.336;3.536;2023-07-13T00:18:44;12.60;;;3.28;;
60006;SDS011;45863;50.336;3.536;2023-07-13T00:21:09;15.93;;;3.45;;
60006;SDS011;45863;50.336;3.536;2023-07-13T00:23:35;14.32;;;3.22;;
60006;SDS011;45863;50.336;3.536;2023-07-13T00:26:01;13.93;;;3.22;;
60006;SDS011;45863;50.336;3.536;2023-07-13T00:28:27;16.17;;;3.40;;
60006;SDS011;45863;50.336;3.536;2023-07-13T00:30:52;8.93;;;3.30;;
60006;SDS011;45863;50.336;3.536;2023-07-13T00:33:17;15.10;;;3.40;;
60006;SDS011;45863;50.336;3.536;2023-07-13T00:35:42;14.07;;;3.78;;
60006;SDS011;45863;50.336;3.536;2023-07-13T00:38:08;11.38;;;3.08;;
60006;SDS011;45863;50.336;3.536;2023-07-13T00:40:34;12.18;;;3.70;;
60006;SDS011;45863;50.336;3.536;2023-07-13T00:42:59;10.20;;;3.35;;
60006;SDS011;45863;50.336;3.536;2023-07-13T00:47:49;15.90;;;3.97;;
60006;SDS011;45863;50.336;3.536;2023-07-13T00:50:15;17.17;;;4.70;;
60006;SDS011;45863;50.336;3.536;2023-07-13T00:52:43;14.48;;;3.47;;
60006;SDS011;45863;50.336;3.536;2023-07-13T00:55:09;15.10;;;4.80;;
60006;SDS011;45863;50.336;3.536;2023-07-13T00:57:36;14.05;;;3.60;;
60006;SDS011;45863;50.336;3.536;2023-07-13T01:00:03;17.20;;;3.42;;
60006;SDS011;45863;50.336;3.536;2023-07-13T01:02:30;15.57;;;4.40;;
60006;SDS011;45863;50.336;3.536;2023-07-13T01:04:56;15.77;;;3.83;;
60006;SDS011;45863;50.336;3.536;2023-07-13T01:07:21;16.98;;;3.85;;
60006;SDS011;45863;50.336;3.536;2023-07-13T01:09:46;19.55;;;4.30;;
60006;SDS011;45863;50.336;3.536;2023-07-13T01:12:11;13.43;;;4.05;;
60006;SDS011;45863;50.336;3.536;2023-07-13T01:14:38;11.88;;;3.63;;
60006;SDS011;45863;50.336;3.536;2023-07-13T01:17:04;17.55;;;3.50;;
60006;SDS011;45863;50.336;3.536;2023-07-13T01:22:01;19.05;;;3.83;;
60006;SDS011;45863;50.336;3.536;2023-07-13T01:24:26;11.75;;;3.65;;
60006;SDS011;45863;50.336;3.536;2023-07-13T01:26:51;15.07;;;3.80;;
60006;SDS011;45863;50.336;3.536;2023-07-13T01:29:17;18.02;;;3.70;;
60006;SDS011;45863;50.336;3.536;2023-07-13T01:31:42;24.30;;;4.28;;
60006;SDS011;45863;50.336;3.536;2023-07-13T01:34:09;14.68;;;3.42;;
60006;SDS011;45863;50.336;3.536;2023-07-13T01:36:34;16.95;;;4.05;;
60006;SDS011;45863;50.336;3.536;2023-07-13T01:39:01;14.23;;;4.05;;
60006;SDS011;45863;50.336;3.536;2023-07-13T01:41:26;17.52;;;4.45;;
60006;SDS011;45863;50.336;3.536;2023-07-13T01:43:51;21.23;;;4.80;;
60006;SDS011;45863;50.336;3.536;2023-07-13T01:46:16;17.60;;;4.07;;
60006;SDS011;45863;50.336;3.536;2023-07-13T01:48:41;17.77;;;4.88;;
60006;SDS011;45863;50.336;3.536;2023-07-13T01:51:07;20.20;;;3.90;;
60006;SDS011;45863;50.336;3.536;2023-07-13T01:53:32;14.87;;;3.93;;
60006;SDS011;45863;50.336;3.536;2023-07-13T01:55:57;18.27;;;4.18;;
60006;SDS011;45863;50.336;3.536;2023-07-13T01:58:22;14.18;;;3.67;;
60006;SDS011;45863;50.336;3.536;2023-07-13T02:00:48;15.27;;;4.40;;
60006;SDS011;45863;50.336;3.536;2023-07-13T02:03:13;20.73;;;4.60;;
60006;SDS011;45863;50.336;3.536;2023-07-13T02:05:42;19.80;;;4.30;;
60006;SDS011;45863;50.336;3.536;2023-07-13T02:08:08;17.27;;;4.97;;
60006;SDS011;45863;50.336;3.536;2023-07-13T02:10:33;18.50;;;4.13;;
60006;SDS011;45863;50.336;3.536;2023-07-13T02:12:58;12.48;;;3.60;;
60006;SDS011;45863;50.336;3.536;2023-07-13T02:15:24;20.08;;;5.60;;
60006;SDS011;45863;50.336;3.536;2023-07-13T02:17:49;20.15;;;5.15;;
60006;SDS011;45863;50.336;3.536;2023-07-13T02:20:14;17.25;;;4.68;;
60006;SDS011;45863;50.336;3.536;2023-07-13T02:22:40;20.27;;;4.90;;
60006;SDS011;45863;50.336;3.536;2023-07-13T02:25:05;16.67;;;3.85;;
60006;SDS011;45863;50.336;3.536;2023-07-13T02:27:31;16.92;;;3.90;;
60006;SDS011;45863;50.336;3.536;2023-07-13T02:29:56;18.98;;;4.68;;
60006;SDS011;45863;50.336;3.536;2023-07-13T02:32:22;20.70;;;4.93;;
60006;SDS011;45863;50.336;3.536;2023-07-13T02:34:47;16.27;;;4.13;;
60006;SDS011;45863;50.336;3.536;2023-07-13T02:37:13;16.33;;;4.30;;
60006;SDS011;45863;50.336;3.536;2023-07-13T02:39:38;15.20;;;3.72;;
60006;SDS011;45863;50.336;3.536;2023-07-13T02:42:03;16.30;;;4.72;;
60006;SDS011;45863;50.336;3.536;2023-07-13T02:44:28;18.38;;;4.47;;
60006;SDS011;45863;50.336;3.536;2023-07-13T02:46:54;13.63;;;4.20;;
60006;SDS011;45863;50.336;3.536;2023-07-13T02:49:19;15.60;;;4.20;;
60006;SDS011;45863;50.336;3.536;2023-07-13T02:51:44;18.08;;;4.25;;
60006;SDS011;45863;50.336;3.536;2023-07-13T02:54:09;21.33;;;4.70;;
60006;SDS011;45863;50.336;3.536;2023-07-13T02:56:35;12.30;;;4.18;;
60006;SDS011;45863;50.336;3.536;2023-07-13T02:59:00;19.38;;;4.68;;
60006;SDS011;45863;50.336;3.536;2023-07-13T03:01:26;22.27;;;4.63;;
60006;SDS011;45863;50.336;3.536;2023-07-13T03:03:51;20.15;;;4.10;;
60006;SDS011;45863;50.336;3.536;2023-07-13T03:06:17;15.77;;;4.07;;
60006;SDS011;45863;50.336;3.536;2023-07-13T03:08:43;17.92;;;4.53;;
60006;SDS011;45863;50.336;3.536;2023-07-13T03:11:09;12.48;;;3.88;;
60006;SDS011;45863;50.336;3.536;2023-07-13T03:13:36;13.43;;;3.80;;
60006;SDS011;45863;50.336;3.536;2023-07-13T03:16:01;21.55;;;4.40;;
60006;SDS011;45863;50.336;3.536;2023-07-13T03:18:27;14.55;;;4.05;;
60006;SDS011;45863;50.336;3.536;2023-07-13T03:20:52;20.85;;;5.13;;
60006;SDS011;45863;50.336;3.536;2023-07-13T03:23:18;17.33;;;4.35;;
60006;SDS011;45863;50.336;3.536;2023-07-13T03:25:43;20.65;;;4.32;;
60006;SDS011;45863;50.336;3.536;2023-07-13T03:28:10;17.25;;;4.07;;
60006;SDS011;45863;50.336;3.536;2023-07-13T03:30:35;15.05;;;4.18;;
60006;SDS011;45863;50.336;3.536;2023-07-13T03:33:00;11.20;;;4.60;;
60006;SDS011;45863;50.336;3.536;2023-07-13T03:35:25;15.68;;;4.25;;
60006;SDS011;45863;50.336;3.536;2023-07-13T03:37:51;15.98;;;4.30;;
60006;SDS011;45863;50.336;3.536;2023-07-13T03:40:16;13.02;;;3.80;;
60006;SDS011;45863;50.336;3.536;2023-07-13T03:42:41;19.02;;;4.00;;
60006;SDS011;45863;50.336;3.536;2023-07-13T03:45:07;17.55;;;4.07;;
60006;SDS011;45863;50.336;3.536;2023-07-13T03:47:32;21.42;;;4.38;;
60006;SDS011;45863;50.336;3.536;2023-07-13T03:49:58;12.57;;;3.95;;
60006;SDS011;45863;50.336;3.536;2023-07-13T03:52:23;10.57;;;4.13;;
60006;SDS011;45863;50.336;3.536;2023-07-13T03:54:48;15.02;;;4.30;;
60006;SDS011;45863;50.336;3.536;2023-07-13T03:57:13;15.57;;;4.10;;
60006;SDS011;45863;50.336;3.536;2023-07-13T03:59:39;10.23;;;3.67;;
60006;SDS011;45863;50.336;3.536;2023-07-13T04:02:04;14.70;;;4.32;;
60006;SDS011;45863;50.336;3.536;2023-07-13T04:04:30;19.17;;;5.03;;
60006;SDS011;45863;50.336;3.536;2023-07-13T04:06:55;12.23;;;4.10;;
60006;SDS011;45863;50.336;3.536;2023-07-13T04:09:21;13.43;;;3.80;;
60006;SDS011;45863;50.336;3.536;2023-07-13T04:11:46;14.65;;;4.15;;
60006;SDS011;45863;50.336;3.536;2023-07-13T04:14:12;13.93;;;4.10;;
60006;SDS011;45863;50.336;3.536;2023-07-13T04:16:37;16.35;;;4.63;;
60006;SDS011;45863;50.336;3.536;2023-07-13T04:19:02;15.10;;;4.27;;
60006;SDS011;45863;50.336;3.536;2023-07-13T04:21:28;13.30;;;3.72;;
60006;SDS011;45863;50.336;3.536;2023-07-13T04:23:53;15.68;;;4.00;;
60006;SDS011;45863;50.336;3.536;2023-07-13T04:26:19;14.20;;;3.85;;
60006;SDS011;45863;50.336;3.536;2023-07-13T04:28:46;15.82;;;3.78;;
60006;SDS011;45863;50.336;3.536;2023-07-13T04:31:11;14.40;;;4.13;;
60006;SDS011;45863;50.336;3.536;2023-07-13T04:33:36;13.67;;;3.73;;
60006;SDS011;45863;50.336;3.536;2023-07-13T04:36:02;12.18;;;3.78;;
60006;SDS011;45863;50.336;3.536;2023-07-13T04:38:28;13.63;;;3.60;;
60006;SDS011;45863;50.336;3.536;2023-07-13T04:40:57;16.13;;;3.75;;
60006;SDS011;45863;50.336;3.536;2023-07-13T04:43:23;12.00;;;3.80;;
60006;SDS011;45863;50.336;3.536;2023-07-13T04:45:48;11.20;;;3.72;;
60006;SDS011;45863;50.336;3.536;2023-07-13T04:48:13;14.50;;;4.10;;
60006;SDS011;45863;50.336;3.536;2023-07-13T04:50:38;15.83;;;3.90;;
60006;SDS011;45863;50.336;3.536;2023-07-13T04:53:04;16.88;;;3.95;;
60006;SDS011;45863;50.336;3.536;2023-07-13T04:55:29;16.23;;;4.75;;
60006;SDS011;45863;50.336;3.536;2023-07-13T04:57:55;17.63;;;4.18;;
60006;SDS011;45863;50.336;3.536;2023-07-13T05:00:21;12.52;;;4.15;;
60006;SDS011;45863;50.336;3.536;2023-07-13T05:02:46;12.25;;;4.47;;
60006;SDS011;45863;50.336;3.536;2023-07-13T05:05:11;12.20;;;3.97;;
60006;SDS011;45863;50.336;3.536;2023-07-13T05:07:37;13.18;;;3.63;;
60006;SDS011;45863;50.336;3.536;2023-07-13T05:10:02;15.05;;;3.58;;
60006;SDS011;45863;50.336;3.536;2023-07-13T05:12:28;14.93;;;4.25;;
60006;SDS011;45863;50.336;3.536;2023-07-13T05:14:54;12.40;;;3.60;;
60006;SDS011;45863;50.336;3.536;2023-07-13T05:17:19;10.27;;;4.00;;
60006;SDS011;45863;50.336;3.536;2023-07-13T05:19:45;12.07;;;3.50;;
60006;SDS011;45863;50.336;3.536;2023-07-13T05:22:10;13.13;;;3.78;;
60006;SDS011;45863;50.336;3.536;2023-07-13T05:24:35;14.20;;;4.45;;
60006;SDS011;45863;50.336;3.536;2023-07-13T05:27:00;16.07;;;4.27;;
60006;SDS011;45863;50.336;3.536;2023-07-13T05:29:25;14.45;;;3.58;;
60006;SDS011;45863;50.336;3.536;2023-07-13T05:31:51;11.90;;;3.90;;
60006;SDS011;45863;50.336;3.536;2023-07-13T05:34:16;13.40;;;3.38;;
60006;SDS011;45863;50.336;3.536;2023-07-13T05:36:41;21.55;;;4.00;;
60006;SDS011;45863;50.336;3.536;2023-07-13T05:39:07;14.52;;;3.67;;
60006;SDS011;45863;50.336;3.536;2023-07-13T05:41:32;13.68;;;3.75;;
60006;SDS011;45863;50.336;3.536;2023-07-13T05:43:57;17.33;;;4.43;;
60006;SDS011;45863;50.336;3.536;2023-07-13T05:46:22;14.18;;;3.67;;
60006;SDS011;45863;50.336;3.536;2023-07-13T05:48:48;13.52;;;4.13;;
60006;SDS011;45863;50.336;3.536;2023-07-13T05:51:13;11.52;;;3.17;;
60006;SDS011;45863;50.336;3.536;2023-07-13T05:53:38;8.82;;;3.65;;
60006;SDS011;45863;50.336;3.536;2023-07-13T05:56:04;14.32;;;3.80;;
60006;SDS011;45863;50.336;3.536;2023-07-13T05:58:29;10.82;;;3.50;;
60006;SDS011;45863;50.336;3.536;2023-07-13T06:00:58;11.18;;;3.22;;
60006;SDS011;45863;50.336;3.536;2023-07-13T06:03:24;18.05;;;3.50;;
60006;SDS011;45863;50.336;3.536;2023-07-13T06:05:49;11.85;;;3.67;;
60006;SDS011;45863;50.336;3.536;2023-07-13T06:08:14;11.03;;;3.27;;
60006;SDS011;45863;50.336;3.536;2023-07-13T06:10:40;12.07;;;3.87;;
60006;SDS011;45863;50.336;3.536;2023-07-13T06:13:05;22.77;;;4.55;;
60006;SDS011;45863;50.336;3.536;2023-07-13T06:15:30;16.90;;;4.05;;
60006;SDS011;45863;50.336;3.536;2023-07-13T06:17:55;12.00;;;3.67;;
60006;SDS011;45863;50.336;3.536;2023-07-13T06:20:21;14.60;;;4.67;;
60006;SDS011;45863;50.336;3.536;2023-07-13T06:22:46;11.68;;;3.25;;
60006;SDS011;45863;50.336;3.536;2023-07-13T06:25:11;11.13;;;3.30;;
60006;SDS011;45863;50.336;3.536;2023-07-13T06:27:36;11.13;;;3.17;;
60006;SDS011;45863;50.336;3.536;2023-07-13T06:30:02;16.33;;;3.85;;
60006;SDS011;45863;50.336;3.536;2023-07-13T06:32:28;12.60;;;3.50;;
60006;SDS011;45863;50.336;3.536;2023-07-13T06:34:53;13.03;;;3.60;;
60006;SDS011;45863;50.336;3.536;2023-07-13T06:37:18;12.68;;;4.38;;
60006;SDS011;45863;50.336;3.536;2023-07-13T06:39:43;13.53;;;3.50;;
60006;SDS011;45863;50.336;3.536;2023-07-13T06:42:09;14.05;;;3.20;;
60006;SDS011;45863;50.336;3.536;2023-07-13T06:44:34;13.23;;;4.35;;
60006;SDS011;45863;50.336;3.536;2023-07-13T06:46:59;12.27;;;3.42;;
60006;SDS011;45863;50.336;3.536;2023-07-13T06:49:25;13.40;;;3.60;;
60006;SDS011;45863;50.336;3.536;2023-07-13T06:51:50;14.30;;;4.43;;
60006;SDS011;45863;50.336;3.536;2023-07-13T06:54:16;14.20;;;3.27;;
60006;SDS011;45863;50.336;3.536;2023-07-13T06:56:41;14.38;;;3.45;;
60006;SDS011;45863;50.336;3.536;2023-07-13T06:59:06;12.87;;;3.73;;
60006;SDS011;45863;50.336;3.536;2023-07-13T07:01:31;13.13;;;4.00;;
60006;SDS011;45863;50.336;3.536;2023-07-13T07:03:56;16.37;;;3.93;;
60006;SDS011;45863;50.336;3.536;2023-07-13T07:06:22;12.03;;;3.30;;
60006;SDS011;45863;50.336;3.536;2023-07-13T07:08:51;16.40;;;3.72;;
60006;SDS011;45863;50.336;3.536;2023-07-13T07:11:17;12.70;;;3.97;;
60006;SDS011;45863;50.336;3.536;2023-07-13T07:13:43;12.07;;;3.85;;
60006;SDS011;45863;50.336;3.536;2023-07-13T07:16:08;14.67;;;3.40;;
60006;SDS011;45863;50.336;3.536;2023-07-13T07:18:33;15.18;;;4.38;;
60006;SDS011;45863;50.336;3.536;2023-07-13T07:20:59;12.07;;;3.70;;
60006;SDS011;45863;50.336;3.536;2023-07-13T07:23:24;16.60;;;4.37;;
60006;SDS011;45863;50.336;3.536;2023-07-13T07:25:49;13.80;;;3.53;;
60006;SDS011;45863;50.336;3.536;2023-07-13T07:28:15;14.13;;;3.53;;
60006;SDS011;45863;50.336;3.536;2023-07-13T07:30:43;12.82;;;3.65;;
60006;SDS011;45863;50.336;3.536;2023-07-13T07:33:08;14.85;;;3.33;;
60006;SDS011;45863;50.336;3.536;2023-07-13T07:35:33;12.02;;;3.78;;
60006;SDS011;45863;50.336;3.536;2023-07-13T07:37:59;18.47;;;4.10;;
60006;SDS011;45863;50.336;3.536;2023-07-13T07:40:24;13.10;;;3.53;;
60006;SDS011;45863;50.336;3.536;2023-07-13T07:42:49;12.05;;;3.28;;
60006;SDS011;45863;50.336;3.536;2023-07-13T07:45:14;11.13;;;3.70;;
60006;SDS011;45863;50.336;3.536;2023-07-13T07:47:40;14.82;;;3.28;;
60006;SDS011;45863;50.336;3.536;2023-07-13T07:50:05;12.57;;;3.10;;
60006;SDS011;45863;50.336;3.536;2023-07-13T07:52:30;15.32;;;3.00;;
60006;SDS011;45863;50.336;3.536;2023-07-13T07:54:55;11.83;;;3.43;;
60006;SDS011;45863;50.336;3.536;2023-07-13T07:57:21;13.37;;;3.80;;
60006;SDS011;45863;50.336;3.536;2023-07-13T07:59:46;15.52;;;3.47;;
60006;SDS011;45863;50.336;3.536;2023-07-13T08:02:11;18.00;;;3.70;;
60006;SDS011;45863;50.336;3.536;2023-07-13T08:04:36;13.10;;;3.45;;
60006;SDS011;45863;50.336;3.536;2023-07-13T08:07:02;17.57;;;4.20;;
60006;SDS011;45863;50.336;3.536;2023-07-13T08:09:28;16.23;;;3.10;;
60006;SDS011;45863;50.336;3.536;2023-07-13T08:11:53;16.58;;;3.70;;
60006;SDS011;45863;50.336;3.536;2023-07-13T08:14:19;13.48;;;3.38;;
60006;SDS011;45863;50.336;3.536;2023-07-13T08:16:45;14.35;;;3.15;;
60006;SDS011;45863;50.336;3.536;2023-07-13T08:19:10;11.98;;;3.22;;
60006;SDS011;45863;50.336;3.536;2023-07-13T08:21:36;12.18;;;3.97;;
60006;SDS011;45863;50.336;3.536;2023-07-13T08:24:02;21.92;;;4.30;;
60006;SDS011;45863;50.336;3.536;2023-07-13T08:26:27;14.75;;;3.70;;
60006;SDS011;45863;50.336;3.536;2023-07-13T08:28:52;14.27;;;4.13;;
60006;SDS011;45863;50.336;3.536;2023-07-13T08:31:17;14.60;;;4.40;;
60006;SDS011;45863;50.336;3.536;2023-07-13T08:33:43;15.25;;;3.95;;
60006;SDS011;45863;50.336;3.536;2023-07-13T08:36:08;14.95;;;3.22;;
60006;SDS011;45863;50.336;3.536;2023-07-13T08:38:33;15.18;;;3.38;;
60006;SDS011;45863;50.336;3.536;2023-07-13T08:40:58;9.27;;;3.47;;
60006;SDS011;45863;50.336;3.536;2023-07-13T08:43:36;16.88;;;3.88;;
60006;SDS011;45863;50.336;3.536;2023-07-13T08:46:08;9.88;;;3.97;;
60006;SDS011;45863;50.336;3.536;2023-07-13T08:48:37;12.70;;;3.85;;
60006;SDS011;45863;50.336;3.536;2023-07-13T08:53:41;12.13;;;3.70;;
60006;SDS011;45863;50.336;3.536;2023-07-13T08:56:11;11.00;;;3.85;;
60006;SDS011;45863;50.336;3.536;2023-07-13T08:58:38;11.40;;;3.28;;
60006;SDS011;45863;50.336;3.536;2023-07-13T09:03:37;19.30;;;4.35;;
60006;SDS011;45863;50.336;3.536;2023-07-13T09:06:06;13.88;;;4.00;;
60006;SDS011;45863;50.336;3.536;2023-07-13T09:08:36;13.23;;;3.05;;
60006;SDS011;45863;50.336;3.536;2023-07-13T09:13:35;10.43;;;3.63;;
60006;SDS011;45863;50.336;3.536;2023-07-13T09:16:02;11.02;;;3.65;;
60006;SDS011;45863;50.336;3.536;2023-07-13T09:18:30;11.48;;;3.65;;
60006;SDS011;45863;50.336;3.536;2023-07-13T09:20:58;12.32;;;3.40;;
60006;SDS011;45863;50.336;3.536;2023-07-13T09:23:26;11.02;;;3.70;;
60006;SDS011;45863;50.336;3.536;2023-07-13T09:25:54;10.57;;;2.85;;
60006;SDS011;45863;50.336;3.536;2023-07-13T09:28:25;14.35;;;3.30;;
60006;SDS011;45863;50.336;3.536;2023-07-13T09:33:20;11.50;;;3.60;;
60006;SDS011;45863;50.336;3.536;2023-07-13T09:35:45;9.52;;;3.42;;
60006;SDS011;45863;50.336;3.536;2023-07-13T09:38:11;8.88;;;2.90;;
60006;SDS011;45863;50.336;3.536;2023-07-13T09:40:44;12.23;;;3.20;;
60006;SDS011;45863;50.336;3.536;2023-07-13T09:43:12;9.93;;;3.35;;
60006;SDS011;45863;50.336;3.536;2023-07-13T09:45:38;12.32;;;4.03;;
60006;SDS011;45863;50.336;3.536;2023-07-13T09:48:10;11.65;;;2.97;;
60006;SDS011;45863;50.336;3.536;2023-07-13T09:50:36;11.25;;;3.05;;
60006;SDS011;45863;50.336;3.536;2023-07-13T09:53:02;9.32;;;3.15;;
60006;SDS011;45863;50.336;3.536;2023-07-13T09:57:55;16.33;;;3.90;;
60006;SDS011;45863;50.336;3.536;2023-07-13T10:00:27;9.55;;;3.08;;
60006;SDS011;45863;50.336;3.536;2023-07-13T10:05:51;9.27;;;3.55;;
60006;SDS011;45863;50.336;3.536;2023-07-13T10:08:29;10.90;;;3.83;;
60006;SDS011;45863;50.336;3.536;2023-07-13T10:11:02;9.05;;;2.60;;
60006;SDS011;45863;50.336;3.536;2023-07-13T10:13:35;11.15;;;2.67;;
60006;SDS011;45863;50.336;3.536;2023-07-13T10:16:01;8.52;;;2.53;;
60006;SDS011;45863;50.336;3.536;2023-07-13T10:18:27;13.65;;;3.38;;
60006;SDS011;45863;50.336;3.536;2023-07-13T10:20:54;9.60;;;3.22;;
60006;SDS011;45863;50.336;3.536;2023-07-13T10:23:23;8.88;;;2.38;;
60006;SDS011;45863;50.336;3.536;2023-07-13T10:25:52;7.80;;;2.40;;
60006;SDS011;45863;50.336;3.536;2023-07-13T10:28:24;12.95;;;2.70;;
60006;SDS011;45863;50.336;3.536;2023-07-13T10:30:50;7.45;;;2.42;;
60006;SDS011;45863;50.336;3.536;2023-07-13T10:33:17;6.10;;;2.53;;
60006;SDS011;45863;50.336;3.536;2023-07-13T10:35:43;7.43;;;2.67;;
60006;SDS011;45863;50.336;3.536;2023-07-13T10:38:11;9.02;;;2.55;;
60006;SDS011;45863;50.336;3.536;2023-07-13T10:40:39;7.20;;;2.15;;
60006;SDS011;45863;50.336;3.536;2023-07-13T10:45:51;8.50;;;2.15;;
60006;SDS011;45863;50.336;3.536;2023-07-13T10:48:19;8.35;;;2.13;;
60006;SDS011;45863;50.336;3.536;2023-07-13T10:50:46;6.90;;;1.75;;
60006;SDS011;45863;50.336;3.536;2023-07-13T10:53:19;5.13;;;1.73;;
60006;SDS011;45863;50.336;3.536;2023-07-13T11:01:15;7.10;;;2.13;;
60006;SDS011;45863;50.336;3.536;2023-07-13T11:03:49;6.80;;;1.80;;
60006;SDS011;45863;50.336;3.536;2023-07-13T11:13:55;5.80;;;1.83;;
60006;SDS011;45863;50.336;3.536;2023-07-13T11:21:28;4.97;;;1.50;;
60006;SDS011;45863;50.336;3.536;2023-07-13T11:24:13;4.43;;;1.70;;
60006;SDS011;45863;50.336;3.536;2023-07-13T11:31:55;6.80;;;1.85;;
60006;SDS011;45863;50.336;3.536;2023-07-13T11:34:27;4.97;;;1.83;;
60006;SDS011;45863;50.336;3.536;2023-07-13T11:36:53;7.25;;;2.25;;
60006;SDS011;45863;50.336;3.536;2023-07-13T11:39:24;5.38;;;1.80;;
60006;SDS011;45863;50.336;3.536;2023-07-13T11:44:16;7.55;;;2.42;;
60006;SDS011;45863;50.336;3.536;2023-07-13T11:46:46;6.93;;;2.65;;
60006;SDS011;45863;50.336;3.536;2023-07-13T11:49:13;5.68;;;2.10;;
60006;SDS011;45863;50.336;3.536;2023-07-13T11:51:40;6.18;;;1.73;;
60006;SDS011;45863;50.336;3.536;2023-07-13T11:54:20;6.13;;;2.07;;
60006;SDS011;45863;50.336;3.536;2023-07-13T11:56:46;5.10;;;1.90;;
60006;SDS011;45863;50.336;3.536;2023-07-13T11:59:11;5.30;;;2.13;;
60006;SDS011;45863;50.336;3.536;2023-07-13T12:01:42;6.28;;;1.65;;
60006;SDS011;45863;50.336;3.536;2023-07-13T12:04:08;8.57;;;2.17;;
60006;SDS011;45863;50.336;3.536;2023-07-13T12:06:42;3.72;;;1.60;;
60006;SDS011;45863;50.336;3.536;2023-07-13T12:09:11;5.45;;;1.60;;
60006;SDS011;45863;50.336;3.536;2023-07-13T12:11:45;5.07;;;2.00;;
60006;SDS011;45863;50.336;3.536;2023-07-13T12:14:13;4.97;;;1.65;;
60006;SDS011;45863;50.336;3.536;2023-07-13T12:16:38;5.45;;;1.73;;
60006;SDS011;45863;50.336;3.536;2023-07-13T12:19:09;5.10;;;1.80;;
60006;SDS011;45863;50.336;3.536;2023-07-13T12:21:39;4.35;;;1.58;;
60006;SDS011;45863;50.336;3.536;2023-07-13T12:24:05;4.15;;;1.83;;
60006;SDS011;45863;50.336;3.536;2023-07-13T12:26:38;5.85;;;2.00;;
60006;SDS011;45863;50.336;3.536;2023-07-13T12:29:05;7.03;;;1.85;;
60006;SDS011;45863;50.336;3.536;2023-07-13T12:33:59;7.15;;;1.85;;
60006;SDS011;45863;50.336;3.536;2023-07-13T12:36:25;10.65;;;1.90;;
60006;SDS011;45863;50.336;3.536;2023-07-13T12:38:50;9.50;;;2.35;;
60006;SDS011;45863;50.336;3.536;2023-07-13T12:41:16;8.18;;;2.75;;
60006;SDS011;45863;50.336;3.536;2023-07-13T12:43:42;5.90;;;2.10;;
60006;SDS011;45863;50.336;3.536;2023-07-13T12:46:17;5.72;;;2.03;;
60006;SDS011;45863;50.336;3.536;2023-07-13T12:48:43;6.57;;;2.00;;
60006;SDS011;45863;50.336;3.536;2023-07-13T12:51:12;6.15;;;1.90;;
60006;SDS011;45863;50.336;3.536;2023-07-13T12:53:42;5.65;;;1.80;;
60006;SDS011;45863;50.336;3.536;2023-07-13T12:56:08;4.80;;;1.97;;
60006;SDS011;45863;50.336;3.536;2023-07-13T12:58:40;4.65;;;1.30;;
60006;SDS011;45863;50.336;3.536;2023-07-13T13:01:09;8.57;;;1.60;;
60006;SDS011;45863;50.336;3.536;2023-07-13T13:03:36;3.25;;;1.40;;
60006;SDS011;45863;50.336;3.536;2023-07-13T13:06:03;3.92;;;1.20;;
60006;SDS011;45863;50.336;3.536;2023-07-13T13:08:33;3.58;;;1.50;;
60006;SDS011;45863;50.336;3.536;2023-07-13T13:10:58;3.38;;;1.20;;
60006;SDS011;45863;50.336;3.536;2023-07-13T13:13:23;2.97;;;1.17;;
60006;SDS011;45863;50.336;3.536;2023-07-13T13:15:49;4.30;;;1.60;;
60006;SDS011;45863;50.336;3.536;2023-07-13T13:18:15;4.70;;;1.58;;
60006;SDS011;45863;50.336;3.536;2023-07-13T13:20:41;4.35;;;1.63;;
60006;SDS011;45863;50.336;3.536;2023-07-13T13:23:10;4.07;;;1.33;;
60006;SDS011;45863;50.336;3.536;2023-07-13T13:25:36;5.22;;;1.48;;
60006;SDS011;45863;50.336;3.536;2023-07-13T13:28:01;4.72;;;1.40;;
60006;SDS011;45863;50.336;3.536;2023-07-13T13:30:26;4.13;;;1.73;;
60006;SDS011;45863;50.336;3.536;2023-07-13T13:32:52;6.17;;;1.73;;
60006;SDS011;45863;50.336;3.536;2023-07-13T13:35:18;4.05;;;1.35;;
60006;SDS011;45863;50.336;3.536;2023-07-13T13:37:43;3.53;;;1.30;;
60006;SDS011;45863;50.336;3.536;2023-07-13T13:40:17;3.90;;;1.40;;
60006;SDS011;45863;50.336;3.536;2023-07-13T13:42:42;5.82;;;1.55;;
60006;SDS011;45863;50.336;3.536;2023-07-13T13:45:09;3.47;;;1.52;;
60006;SDS011;45863;50.336;3.536;2023-07-13T13:47:34;4.03;;;1.15;;
60006;SDS011;45863;50.336;3.536;2023-07-13T13:50:01;3.55;;;1.40;;
60006;SDS011;45863;50.336;3.536;2023-07-13T13:52:26;5.20;;;1.85;;
60006;SDS011;45863;50.336;3.536;2023-07-13T13:54:51;3.53;;;1.20;;
60006;SDS011;45863;50.336;3.536;2023-07-13T13:57:21;4.03;;;1.70;;
60006;SDS011;45863;50.336;3.536;2023-07-13T13:59:48;6.50;;;1.83;;
60006;SDS011;45863;50.336;3.536;2023-07-13T14:02:21;3.78;;;1.83;;
60006;SDS011;45863;50.336;3.536;2023-07-13T14:04:49;3.75;;;1.70;;
60006;SDS011;45863;50.336;3.536;2023-07-13T14:07:15;5.85;;;1.48;;
60006;SDS011;45863;50.336;3.536;2023-07-13T14:09:41;5.60;;;1.57;;
60006;SDS011;45863;50.336;3.536;2023-07-13T14:12:08;4.18;;;1.40;;
60006;SDS011;45863;50.336;3.536;2023-07-13T14:14:36;6.13;;;1.73;;
60006;SDS011;45863;50.336;3.536;2023-07-13T14:17:02;5.53;;;1.60;;
60006;SDS011;45863;50.336;3.536;2023-07-13T14:19:27;4.40;;;1.90;;
60006;SDS011;45863;50.336;3.536;2023-07-13T14:21:52;4.00;;;1.60;;
60006;SDS011;45863;50.336;3.536;2023-07-13T14:24:18;3.83;;;1.65;;
60006;SDS011;45863;50.336;3.536;2023-07-13T14:26:43;4.38;;;1.80;;
60006;SDS011;45863;50.336;3.536;2023-07-13T14:29:16;5.57;;;1.80;;
60006;SDS011;45863;50.336;3.536;2023-07-13T14:31:42;5.32;;;1.73;;
60006;SDS011;45863;50.336;3.536;2023-07-13T14:34:09;4.00;;;1.80;;
60006;SDS011;45863;50.336;3.536;2023-07-13T14:36:42;8.80;;;1.75;;
60006;SDS011;45863;50.336;3.536;2023-07-13T14:39:19;6.05;;;2.08;;
60006;SDS011;45863;50.336;3.536;2023-07-13T14:41:45;5.15;;;2.00;;
60006;SDS011;45863;50.336;3.536;2023-07-13T14:44:14;5.68;;;2.13;;
60006;SDS011;45863;50.336;3.536;2023-07-13T14:46:39;9.30;;;2.15;;
60006;SDS011;45863;50.336;3.536;2023-07-13T14:51:36;4.60;;;2.00;;
60006;SDS011;45863;50.336;3.536;2023-07-13T14:54:03;5.72;;;1.98;;
60006;SDS011;45863;50.336;3.536;2023-07-13T14:56:28;6.90;;;2.20;;
60006;SDS011;45863;50.336;3.536;2023-07-13T14:58:54;6.18;;;1.90;;
60006;SDS011;45863;50.336;3.536;2023-07-13T15:01:20;8.70;;;2.22;;
60006;SDS011;45863;50.336;3.536;2023-07-13T15:03:46;6.88;;;2.10;;
60006;SDS011;45863;50.336;3.536;2023-07-13T15:06:12;6.78;;;2.20;;
60006;SDS011;45863;50.336;3.536;2023-07-13T15:08:38;5.53;;;2.28;;
60006;SDS011;45863;50.336;3.536;2023-07-13T15:11:03;5.63;;;2.63;;
60006;SDS011;45863;50.336;3.536;2023-07-13T15:13:29;6.25;;;2.38;;
60006;SDS011;45863;50.336;3.536;2023-07-13T15:15:55;6.15;;;2.10;;
60006;SDS011;45863;50.336;3.536;2023-07-13T15:18:21;7.05;;;2.28;;
60006;SDS011;45863;50.336;3.536;2023-07-13T15:20:47;5.68;;;2.28;;
60006;SDS011;45863;50.336;3.536;2023-07-13T15:23:14;6.75;;;2.50;;
60006;SDS011;45863;50.336;3.536;2023-07-13T15:25:40;4.97;;;2.58;;
60006;SDS011;45863;50.336;3.536;2023-07-13T15:28:06;6.70;;;2.55;;